Time;durP1;ratioP1;P1;durP2;ratioP2;P2;SDS_P1;SDS_P2;PMS_P1;PMS_P2;Temp;Humidity;BMP_temperature;BMP_pressure;BME280_temperature;BME280_humidity;BME280_pressure;Samples;Min_cycle;Max_cycle;Signal;HPM_P1;HPM_P2
2022/03/12 00:03:29;;;;;;;9.23;6.92;;;;;;;9.22;22.49;101880.13;2106339;92;26496;-80
2022/03/12 00:06:59;;;;;;;8.58;5.87;;;;;;;9.20;22.49;101870.44;2112518;90;25856;-80
2022/03/12 00:10:59;;;;;;;8.95;5.80;;;;;;;9.17;22.54;101861.17;2188468;88;25950;-79
2022/03/12 00:14:25;;;;;;;8.40;6.10;;;;;;;9.14;22.56;101867.51;2118062;92;25995;-79
2022/03/12 00:18:05;;;;;;;9.40;6.28;;;;;;;9.11;22.59;101866.04;2113319;93;25935;-80
2022/03/12 00:21:37;;;;;;;8.30;5.75;;;;;;;9.08;22.61;101871.08;2109952;93;25789;-80
2022/03/12 00:25:21;;;;;;;10.82;6.22;;;;;;;9.06;22.61;101866.22;2085567;94;25803;-80
2022/03/12 00:28:45;;;;;;;9.98;6.37;;;;;;;9.03;22.65;101859.55;2091502;93;25803;-81
2022/03/12 00:36:14;;;;;;;8.70;7.25;;;;;;;8.96;22.68;101859.22;2110818;92;25813;-81
2022/03/12 00:39:50;;;;;;;11.05;6.12;;;;;;;8.94;22.70;101856.03;2088611;94;26684;-80
2022/03/12 00:43:31;;;;;;;7.90;5.80;;;;;;;8.90;22.73;101851.08;2056314;94;26402;-79
2022/03/12 00:47:02;;;;;;;13.75;7.87;;;;;;;8.87;22.75;101844.81;2084804;94;26062;-79
2022/03/12 00:50:29;;;;;;;8.25;6.45;;;;;;;8.84;22.76;101850.77;2088666;91;25764;-79
2022/03/12 00:53:52;;;;;;;9.05;6.47;;;;;;;8.82;22.79;101847.59;2089210;93;25713;-79
2022/03/12 00:57:26;;;;;;;9.78;6.70;;;;;;;8.80;22.81;101849.20;2089847;94;25723;-81
2022/03/12 01:00:50;;;;;;;10.97;7.10;;;;;;;8.77;22.84;101846.02;2121272;91;25824;-81
2022/03/12 01:04:18;;;;;;;10.48;6.75;;;;;;;8.74;22.85;101850.67;2069141;94;25815;-79
2022/03/12 01:08:00;;;;;;;11.25;6.40;;;;;;;8.72;22.89;101841.88;2124897;89;25562;-78
2022/03/12 01:11:28;;;;;;;9.95;7.08;;;;;;;8.70;22.90;101846.50;2157516;91;25735;-80
2022/03/12 01:14:58;;;;;;;10.20;6.80;;;;;;;8.67;22.95;101844.66;2130003;90;26018;-79
2022/03/12 01:18:31;;;;;;;8.95;6.33;;;;;;;8.64;22.97;101848.39;2201371;87;25789;-78
2022/03/12 01:22:03;;;;;;;9.15;6.75;;;;;;;8.62;22.98;101851.70;2160555;90;25748;-78
2022/03/12 01:26:05;;;;;;;;;;;;;;;;;;;;;
2022/03/12 01:29:27;;;;;;;13.20;8.23;;;;;;;8.56;23.04;101837.06;2188617;90;25748;-81
2022/03/12 01:33:00;;;;;;;12.40;7.78;;;;;;;8.53;23.06;101832.99;2221110;87;25752;-78
2022/03/12 01:36:31;;;;;;;12.20;7.95;;;;;;;8.50;23.09;101837.61;2331296;84;25730;-80
2022/03/12 01:39:55;;;;;;;13.32;7.72;;;;;;;8.47;23.13;101836.14;2391590;82;25531;-81
2022/03/12 01:43:30;;;;;;;11.73;8.25;;;;;;;8.44;23.16;101832.98;2391529;82;25715;-80
2022/03/12 01:47:12;;;;;;;12.50;8.08;;;;;;;8.42;23.17;101830.70;2389965;82;25637;-79
2022/03/12 01:50:45;;;;;;;13.65;8.43;;;;;;;8.39;23.21;101834.42;2329965;84;25975;-80
2022/03/12 01:54:22;;;;;;;9.35;7.65;;;;;;;8.36;23.24;101830.31;2330802;84;25795;-80
2022/03/12 01:57:51;;;;;;;11.95;8.55;;;;;;;8.34;23.26;101829.36;2250906;87;35288;-80
2022/03/12 02:01:23;;;;;;;12.37;7.83;;;;;;;8.31;23.27;101830.48;2214691;88;26007;-79
2022/03/12 02:04:57;;;;;;;9.85;8.18;;;;;;;8.28;23.31;101825.11;2194116;89;25808;-80
2022/03/12 02:08:25;;;;;;;9.38;7.47;;;;;;;8.26;23.31;101828.02;2217914;87;25805;-79
2022/03/12 02:11:58;;;;;;;16.07;7.92;;;;;;;8.23;23.35;101830.44;2183207;90;25782;-80
2022/03/12 02:15:31;;;;;;;11.48;7.62;;;;;;;8.20;23.36;101823.77;2183154;90;25761;-79
2022/03/12 02:18:59;;;;;;;11.60;8.30;;;;;;;8.17;23.40;101826.22;2182412;89;25680;-80
2022/03/12 02:22:24;;;;;;;14.38;8.50;;;;;;;8.15;23.41;101823.93;2126330;90;25985;-79
2022/03/12 02:25:59;;;;;;;12.93;8.65;;;;;;;8.11;23.43;101816.37;2162383;90;25773;-79
2022/03/12 02:29:33;;;;;;;12.93;8.48;;;;;;;8.07;23.46;101814.82;2158084;89;35287;-81
2022/03/12 02:33:01;;;;;;;15.25;8.33;;;;;;;8.05;23.49;101809.11;2194792;87;25764;-80
2022/03/12 02:36:41;;;;;;;10.72;7.87;;;;;;;8.02;23.49;101806.75;2275812;86;26053;-80
2022/03/12 02:40:09;;;;;;;13.35;8.78;;;;;;;7.99;23.50;101802.67;2275361;86;25945;-79
2022/03/12 02:43:44;;;;;;;13.85;8.98;;;;;;;7.96;23.52;101807.28;2276000;86;25740;-80
2022/03/12 02:47:23;;;;;;;14.15;8.53;;;;;;;7.93;23.55;101798.05;2275328;85;26012;-80
2022/03/12 02:50:43;;;;;;;14.93;9.38;;;;;;;7.90;23.57;101803.06;2274560;86;25832;-80
2022/03/12 02:54:14;;;;;;;13.28;8.73;;;;;;;7.87;23.60;101796.40;2274984;85;25765;-79
2022/03/12 02:57:43;;;;;;;12.98;8.35;;;;;;;7.86;23.61;101798.89;2294872;85;25793;-82
2022/03/12 03:01:23;;;;;;;15.00;9.15;;;;;;;7.83;23.64;101801.30;2203745;89;25677;-79
2022/03/12 03:04:54;;;;;;;13.08;9.45;;;;;;;7.80;23.66;101802.05;2180515;90;25889;-79
2022/03/12 03:15:59;;;;;;;15.35;9.20;;;;;;;7.72;23.72;101796.80;2098661;92;25663;-80
2022/03/12 03:19:26;;;;;;;16.55;10.32;;;;;;;7.69;23.75;101794.91;2099017;91;25741;-78
2022/03/12 03:23:04;;;;;;;13.08;8.98;;;;;;;7.67;23.77;101783.56;2099011;92;25880;-80
2022/03/12 03:26:45;;;;;;;12.98;9.73;;;;;;;7.65;23.78;101789.47;2098578;92;26046;-81
2022/03/12 03:30:18;;;;;;;14.35;10.15;;;;;;;7.61;23.80;101787.51;2099315;91;25735;-79
2022/03/12 03:33:49;;;;;;;19.50;9.90;;;;;;;7.56;23.82;101793.33;2151464;90;25794;-79
2022/03/12 03:37:38;;;;;;;16.85;9.48;;;;;;;7.53;23.85;101784.07;2131877;91;25746;-79
2022/03/12 03:41:12;;;;;;;20.10;9.88;;;;;;;7.50;23.85;101790.38;1997776;96;25915;-80
2022/03/12 03:44:59;;;;;;;;;;;;;;;;;;;;;
2022/03/12 03:48:18;;;;;;;15.93;10.75;;;;;;;7.44;23.89;101782.63;1969604;98;25842;-80
2022/03/12 03:51:48;;;;;;;16.40;10.32;;;;;;;7.40;23.93;101776.78;1941042;98;25806;-80
2022/03/12 03:55:11;;;;;;;15.28;10.43;;;;;;;7.37;23.95;101780.08;1970214;100;25836;-79
2022/03/12 03:58:37;;;;;;;15.72;10.45;;;;;;;7.32;23.98;101780.20;1971061;96;25809;-79
2022/03/12 04:02:15;;;;;;;;;;;;;;;;;;;;;
2022/03/12 04:05:47;;;;;;;20.48;12.28;;;;;;;7.29;23.97;101776.16;2022282;96;34886;-78
2022/03/12 04:09:22;;;;;;;16.50;10.40;;;;;;;7.25;24.00;101789.31;2022731;96;25816;-78
2022/03/12 04:13:00;;;;;;;21.97;11.30;;;;;;;7.23;24.00;101788.34;2014610;96;25748;-79
2022/03/12 04:16:23;;;;;;;19.82;11.22;;;;;;;7.23;24.04;101786.16;1999901;97;26164;-79
2022/03/12 04:19:55;;;;;;;20.68;11.63;;;;;;;7.22;24.06;101790.83;2079366;93;26014;-79
2022/03/12 04:23:35;;;;;;;16.85;12.03;;;;;;;7.19;24.09;101791.56;2081754;95;25922;-77
2022/03/12 04:27:19;;;;;;;14.10;9.75;;;;;;;7.17;24.11;101787.09;2114705;92;25681;-78
2022/03/12 04:30:45;;;;;;;23.32;11.00;;;;;;;7.17;24.15;101789.67;2083880;94;26015;-78
2022/03/12 04:34:08;;;;;;;18.05;10.63;;;;;;;7.15;24.17;101791.27;2095045;93;25900;-81
2022/03/12 04:37:37;;;;;;;17.70;11.10;;;;;;;7.13;24.21;101792.90;2157559;90;26087;-78
2022/03/12 04:41:12;;;;;;;20.30;12.03;;;;;;;7.12;24.23;101785.89;2192777;88;25863;-80
2022/03/12 04:44:36;;;;;;;17.92;11.68;;;;;;;7.09;24.25;101790.12;2192904;88;25740;-79
2022/03/12 04:48:03;;;;;;;17.67;10.60;;;;;;;7.10;24.28;101784.52;2190468;90;25780;-78
2022/03/12 04:51:45;;;;;;;16.32;11.70;;;;;;;7.07;24.29;101787.82;2193159;90;25759;-78
2022/03/12 04:55:21;;;;;;;19.30;11.80;;;;;;;7.06;24.32;101782.16;2193124;89;25775;-81
2022/03/12 04:58:46;;;;;;;21.37;11.43;;;;;;;7.06;24.34;101784.74;2194625;88;25979;-79
2022/03/12 05:02:11;;;;;;;22.27;12.25;;;;;;;7.03;24.36;101775.48;2290294;84;25678;-79
2022/03/12 05:06:05;;;;;;;21.87;12.00;;;;;;;7.02;24.38;101767.22;2328567;85;25462;-77
2022/03/12 05:09:30;;;;;;;17.42;10.98;;;;;;;7.02;24.41;101768.89;2325229;84;25226;-79
2022/03/12 05:13:00;;;;;;;18.67;10.88;;;;;;;7.01;24.42;101762.81;2336184;84;25644;-79
2022/03/12 05:16:35;;;;;;;17.17;11.43;;;;;;;7.00;24.43;101761.03;2318728;83;25696;-79
2022/03/12 05:20:09;;;;;;;18.37;11.35;;;;;;;6.99;24.44;101760.55;2353355;84;25740;-79
2022/03/12 05:23:35;;;;;;;17.87;10.72;;;;;;;6.99;24.44;101765.73;2352793;84;25746;-78
2022/03/12 05:27:09;;;;;;;21.55;11.35;;;;;;;6.99;24.47;101760.55;2353313;84;25669;-80
2022/03/12 05:30:59;;;;;;;20.70;11.28;;;;;;;6.98;24.49;101764.33;2347564;84;25659;-78
2022/03/12 05:34:18;;;;;;;15.98;9.65;;;;;;;6.99;24.50;101765.73;2349308;84;25745;-78
2022/03/12 05:37:48;;;;;;;19.05;11.15;;;;;;;7.01;24.52;101765.81;2353134;84;25650;-79
2022/03/12 05:41:26;;;;;;;18.57;10.80;;;;;;;7.02;24.54;101771.11;2351788;84;25188;-79
2022/03/12 05:45:05;;;;;;;15.98;11.05;;;;;;;7.05;24.54;101767.78;2262515;87;26515;-80
2022/03/12 05:48:44;;;;;;;23.85;11.08;;;;;;;7.07;24.58;101771.38;2265938;87;25680;-80
2022/03/12 05:52:10;;;;;;;18.52;11.60;;;;;;;7.09;24.60;101778.45;2266282;83;25725;-80
2022/03/12 05:55:37;;;;;;;19.75;11.22;;;;;;;7.12;24.62;101773.86;2170314;87;25771;-80
2022/03/12 05:59:06;;;;;;;18.15;11.30;;;;;;;7.16;24.61;101776.23;2171367;90;25817;-80
2022/03/12 06:02:53;;;;;;;19.32;11.15;;;;;;;7.20;24.67;101777.78;2185582;88;25744;-79
2022/03/12 06:06:30;;;;;;;21.60;11.33;;;;;;;7.24;24.60;101783.64;2120684;93;25784;-81
2022/03/12 06:10:16;;;;;;;17.82;12.07;;;;;;;7.27;24.69;101771.27;2117721;91;25805;-78
2022/03/12 06:14:08;;;;;;;15.83;11.45;;;;;;;7.30;24.72;101777.94;2100927;92;26631;-78
2022/03/12 06:17:34;;;;;;;20.82;12.37;;;;;;;7.36;24.76;101774.78;2073359;94;25722;-80
2022/03/12 06:21:02;;;;;;;19.10;13.05;;;;;;;7.39;24.76;101767.19;2106409;92;25631;-77
2022/03/12 06:24:36;;;;;;;15.35;11.83;;;;;;;7.43;24.78;101758.39;2111809;93;26346;-78
2022/03/12 06:28:07;;;;;;;19.12;12.53;;;;;;;7.47;24.90;101760.34;2112286;93;25829;-79
2022/03/12 06:31:40;;;;;;;19.07;12.05;;;;;;;7.52;24.97;101752.81;2112044;92;25769;-78
2022/03/12 06:35:13;;;;;;;20.00;12.85;;;;;;;7.61;25.05;101762.85;2108804;93;25709;-77
2022/03/12 06:38:48;;;;;;;23.45;12.88;;;;;;;7.76;25.03;101758.52;2109285;93;25784;-79
2022/03/12 06:42:24;;;;;;;23.87;12.63;;;;;;;7.96;24.97;101761.84;2201999;89;25735;-79
2022/03/12 06:45:53;;;;;;;22.70;13.48;;;;;;;8.20;24.92;101765.31;2205995;89;25753;-79
2022/03/12 06:49:28;;;;;;;16.67;11.48;;;;;;;8.45;24.82;101765.00;2205743;89;25820;-79
2022/03/12 06:53:06;;;;;;;20.45;12.35;;;;;;;8.67;24.71;101765.36;2206375;89;25777;-79
2022/03/12 06:56:49;;;;;;;;;;;;;;;;;;;;;
2022/03/12 07:00:16;;;;;;;29.32;13.25;;;;;;;9.14;24.44;101776.03;2211498;89;25716;-80
2022/03/12 07:03:45;;;;;;;27.15;13.40;;;;;;;9.38;24.36;101789.81;2267245;86;25630;-80
2022/03/12 07:07:18;;;;;;;20.32;12.20;;;;;;;9.58;24.24;101794.73;2285391;85;25828;-80
2022/03/12 07:10:48;;;;;;;22.07;12.43;;;;;;;9.79;24.11;101795.81;2285213;86;25645;-79
2022/03/12 07:14:42;;;;;;;;;;;;;;;;;;;;;
2022/03/12 07:18:18;;;;;;;15.43;10.90;;;;;;;10.28;23.86;101786.47;2302402;84;25705;-79
2022/03/12 07:21:56;;;;;;;;;;;;;;;;;;;;;
2022/03/12 07:25:24;;;;;;;22.48;12.47;;;;;;;10.91;23.57;101787.18;2326926;84;25736;-79
2022/03/12 07:28:47;;;;;;;22.82;13.08;;;;;;;11.23;23.41;101792.08;2331679;84;25529;-80
2022/03/12 07:32:14;;;;;;;15.75;11.22;;;;;;;11.57;23.24;101790.48;2332067;84;25886;-79
2022/03/12 07:35:50;;;;;;;19.20;11.78;;;;;;;11.94;23.05;101789.84;2332646;84;25736;-78
2022/03/12 07:39:22;;;;;;;22.48;11.60;;;;;;;12.26;22.90;101790.73;2332336;84;25753;-78
2022/03/12 07:42:50;;;;;;;26.00;13.50;;;;;;;12.59;22.74;101799.80;2332338;84;25718;-81
2022/03/12 07:46:37;;;;;;;20.43;11.78;;;;;;;13.54;22.53;101800.67;2333174;83;25690;-79
2022/03/12 07:50:11;;;;;;;;;;;;;;;;;;;;;
2022/03/12 07:53:30;;;;;;;17.10;11.28;;;;;;;19.44;19.48;101809.89;2331717;84;26141;-81
2022/03/12 08:04:17;;;;;;;11.95;10.43;;;;;;;25.24;15.44;101809.73;2201807;88;25990;-78
2022/03/12 08:07:33;;;;;;;19.82;10.45;;;;;;;26.63;14.52;101812.73;2199829;88;25792;-80
2022/03/12 08:14:56;;;;;;;12.80;10.20;;;;;;;29.21;12.92;101823.63;2187462;90;25786;-77
2022/03/12 08:18:29;;;;;;;12.53;10.20;;;;;;;30.29;12.33;101824.53;2111271;92;25764;-81
2022/03/12 08:22:14;;;;;;;;;;;;;;;;;;;;;
2022/03/12 08:25:43;;;;;;;10.30;9.28;;;;;;;32.03;11.44;101819.51;2076709;92;26047;-81
2022/03/12 08:29:14;;;;;;;11.48;9.25;;;;;;;32.69;11.18;101817.91;2056378;94;25762;-82
2022/03/12 08:32:40;;;;;;;9.93;8.95;;;;;;;33.39;10.90;101822.67;2103139;91;25754;-81
2022/03/12 08:36:34;;;;;;;;;;;;;;;;;;;;;
2022/03/12 08:40:06;;;;;;;8.90;7.95;;;;;;;34.50;10.58;101834.63;2077962;93;25882;-82
2022/03/12 08:43:37;;;;;;;10.32;8.08;;;;;;;34.97;10.48;101842.00;2079079;93;25753;-82
2022/03/12 08:47:11;;;;;;;10.65;8.40;;;;;;;35.73;10.35;101842.66;2079592;93;26210;-82
2022/03/12 08:50:45;;;;;;;9.35;7.50;;;;;;;36.32;10.15;101849.95;2013622;96;25855;-82
2022/03/12 08:54:21;;;;;;;8.15;7.45;;;;;;;36.97;10.02;101850.02;2027062;96;26261;-83
2022/03/12 08:58:05;;;;;;;;;;;;;;;;;;;;;
2022/03/12 09:01:21;;;;;;;7.30;6.30;;;;;;;38.27;9.59;101845.34;1827867;106;25904;-83
2022/03/12 09:05:04;;;;;;;7.42;6.70;;;;;;;38.85;9.42;101845.80;1842569;104;25787;-79
2022/03/12 09:12:14;;;;;;;;;;;;;;;;;;;;;
2022/03/12 09:15:36;;;;;;;5.75;5.25;;;;;;;36.44;6.81;101830.64;1918761;101;25817;-82
2022/03/12 09:19:14;;;;;;;7.67;5.72;;;;;;;35.92;6.53;101827.03;1965107;100;25848;-80
2022/03/12 09:22:44;;;;;;;6.58;5.97;;;;;;;35.43;6.51;101819.05;1973122;99;25841;-84
2022/03/12 09:29:48;;;;;;;6.35;5.22;;;;;;;35.06;6.59;101810.81;1967439;99;25840;-84
2022/03/12 09:33:56;;;;;;;6.20;5.47;;;;;;;34.96;6.55;101817.20;1965319;99;26401;-88
2022/03/12 09:37:23;;;;;;;4.87;4.47;;;;;;;34.87;6.54;101809.13;1958890;100;25932;-84
2022/03/12 09:41:05;;;;;;;9.20;5.30;;;;;;;34.39;6.56;101809.93;1974531;98;25376;-83
2022/03/12 09:44:57;;;;;;;8.30;5.62;;;;;;;34.31;6.55;101809.00;1867193;103;25904;-77
2022/03/12 09:48:42;;;;;;;;;;;;;;;;;;;;;
2022/03/12 09:52:40;;;;;;;7.45;6.20;;;;;;;34.18;6.72;101792.53;1822496;106;25932;-86
2022/03/12 09:56:51;;;;;;;6.90;6.10;;;;;;;33.96;6.50;101791.91;1803030;108;26832;-79
2022/03/12 10:00:19;;;;;;;8.33;5.33;;;;;;;33.76;6.61;101774.00;1829468;108;25788;-77
2022/03/12 10:04:21;;;;;;;;;;;;;;;;;;;;;
2022/03/12 10:07:53;;;;;;;9.13;5.87;;;;;;;33.81;6.32;101743.52;1850589;103;25677;-81
2022/03/12 10:11:18;;;;;;;6.90;6.27;;;;;;;33.59;6.39;101756.80;1921218;101;25844;-73
2022/03/12 10:14:47;;;;;;;8.10;6.22;;;;;;;33.17;6.45;101753.04;1892310;104;25791;-83
2022/03/12 10:18:08;;;;;;;11.30;6.08;;;;;;;32.96;6.55;101740.59;1892818;103;26003;-85
2022/03/12 10:21:32;;;;;;;6.47;5.83;;;;;;;32.83;6.61;101736.23;1912653;101;25884;-72
2022/03/12 10:24:53;;;;;;;6.28;5.33;;;;;;;32.80;6.82;101735.02;1919377;103;25983;-86
2022/03/12 10:28:16;;;;;;;6.08;5.47;;;;;;;32.89;6.48;101725.13;1917305;103;25775;-73
2022/03/12 10:31:38;;;;;;;6.65;6.05;;;;;;;32.19;6.81;101715.80;1917214;103;25879;-76
2022/03/12 10:35:02;;;;;;;7.37;6.62;;;;;;;32.27;6.79;101712.77;1917336;103;25702;-73
2022/03/12 10:38:25;;;;;;;7.37;5.65;;;;;;;32.08;6.89;101709.55;1941392;100;25848;-72
2022/03/12 10:41:46;;;;;;;30.40;6.97;;;;;;;31.88;6.64;101718.53;2186129;88;25771;-74
2022/03/12 10:45:11;;;;;;;7.47;6.78;;;;;;;31.39;6.81;101711.22;2235528;88;25766;-73
2022/03/12 10:48:39;;;;;;;7.47;6.00;;;;;;;31.23;6.93;101702.86;2235895;88;25635;-72
2022/03/12 10:52:00;;;;;;;7.67;6.95;;;;;;;31.41;7.01;101709.31;2200523;88;26040;-72
2022/03/12 10:55:33;;;;;;;7.60;6.83;;;;;;;31.19;7.03;101703.06;2287605;84;25708;-73
2022/03/12 10:58:53;;;;;;;7.33;6.72;;;;;;;30.86;7.15;101708.02;2334266;84;25419;-78
2022/03/12 11:02:15;;;;;;;8.33;6.55;;;;;;;30.72;7.28;101695.07;2334894;84;25677;-71
2022/03/12 11:05:38;;;;;;;8.95;6.05;;;;;;;30.85;7.29;101701.75;2334609;84;25664;-71
2022/03/12 11:09:00;;;;;;;13.93;6.50;;;;;;;30.81;7.29;101708.17;2333986;84;25665;-71
2022/03/12 11:12:37;;;;;;;7.65;6.90;;;;;;;30.44;7.34;101699.29;2346901;82;25592;-72
2022/03/12 11:16:16;;;;;;;6.60;6.00;;;;;;;30.10;7.28;101698.75;2370243;83;25591;-73
2022/03/12 11:19:40;;;;;;;8.67;6.57;;;;;;;30.12;7.45;101691.48;2217591;88;25736;-72
2022/03/12 11:23:08;;;;;;;7.30;5.85;;;;;;;29.92;7.55;101685.95;2260462;87;25852;-73
2022/03/12 11:26:29;;;;;;;8.18;6.65;;;;;;;29.85;7.52;101685.78;2260622;87;25737;-71
2022/03/12 11:30:00;;;;;;;13.83;7.28;;;;;;;29.47;7.55;101685.30;2260339;87;25640;-74
2022/03/12 11:33:26;;;;;;;6.37;5.58;;;;;;;29.41;7.57;101687.72;2259997;87;26042;-71
2022/03/12 11:36:59;;;;;;;6.95;5.92;;;;;;;29.13;8.40;101677.51;2260395;87;25860;-80
2022/03/12 11:40:20;;;;;;;13.32;6.60;;;;;;;29.79;8.51;101691.37;2259995;87;25377;-80
2022/03/12 11:43:47;;;;;;;5.87;5.37;;;;;;;29.10;7.86;101678.48;2260595;86;25665;-79
2022/03/12 11:47:21;;;;;;;6.97;6.00;;;;;;;28.41;7.82;101673.03;2260203;87;25789;-79
2022/03/12 11:51:12;;;;;;;;;;;;;;;;;;;;;
2022/03/12 11:54:30;;;;;;;5.72;5.25;;;;;;;27.33;7.84;101660.81;2295806;86;25720;-78
2022/03/12 11:58:27;;;;;;;9.50;5.03;;;;;;;26.74;8.12;101647.50;2380129;83;25755;-80
2022/03/12 12:02:08;;;;;;;6.00;5.40;;;;;;;26.64;8.18;101645.95;2298298;86;25722;-76
2022/03/12 12:05:43;;;;;;;5.47;4.62;;;;;;;26.88;8.39;101633.79;2295263;86;25883;-77
2022/03/12 12:09:13;;;;;;;5.87;5.28;;;;;;;26.87;8.14;101624.47;2135049;91;25813;-77
2022/03/12 12:12:38;;;;;;;5.72;5.12;;;;;;;25.84;8.13;101626.23;2135024;90;25936;-83
2022/03/12 12:16:11;;;;;;;6.28;4.47;;;;;;;25.38;8.21;101619.52;2126824;92;25847;-77
2022/03/12 12:19:41;;;;;;;6.20;5.40;;;;;;;25.17;8.68;101608.31;2113142;93;25299;-82
2022/03/12 12:23:19;;;;;;;5.13;4.63;;;;;;;25.67;8.66;101609.63;2114573;92;25702;-77
2022/03/12 12:26:50;;;;;;;5.65;5.10;;;;;;;25.58;8.54;101603.13;2123112;91;25733;-80
2022/03/12 12:30:38;;;;;;;13.72;4.85;;;;;;;25.51;8.72;101604.16;2144652;92;25832;-80
2022/03/12 12:34:02;;;;;;;6.62;4.80;;;;;;;25.77;8.57;101595.19;2150332;91;25713;-79
2022/03/12 12:38:07;;;;;;;12.33;7.97;;;;;;;25.77;8.77;101593.84;2150173;91;25339;-85
2022/03/12 12:42:01;;;;;;;10.63;7.83;;;;;;;26.14;8.66;101591.31;2150064;91;26374;-80
2022/03/12 12:45:48;;;;;;;9.43;5.15;;;;;;;26.60;8.56;101590.77;2136742;92;26516;-76
2022/03/12 12:49:17;;;;;;;8.65;5.03;;;;;;;26.09;8.24;101585.67;2079316;93;25906;-79
2022/03/12 12:53:17;;;;;;;6.00;5.37;;;;;;;25.42;8.44;101576.73;2101085;92;25788;-77
2022/03/12 12:57:00;;;;;;;12.75;7.67;;;;;;;25.38;8.55;101571.03;2151935;91;25706;-75
2022/03/12 13:00:32;;;;;;;13.53;6.83;;;;;;;25.51;8.72;101570.31;2207117;89;25338;-84
2022/03/12 13:07:31;;;;;;;9.67;6.17;;;;;;;25.62;8.60;101546.09;2222343;88;25773;-80
2022/03/12 13:11:26;;;;;;;6.42;5.70;;;;;;;25.43;8.82;101550.45;2230015;87;25886;-76
2022/03/12 13:14:55;;;;;;;9.23;7.28;;;;;;;25.57;8.80;101539.95;2196292;88;25815;-78
2022/03/12 13:18:47;;;;;;;;;;;;;;;;;;;;;
2022/03/12 13:22:31;;;;;;;8.38;5.65;;;;;;;25.70;8.57;101530.78;2264329;87;25776;-82
2022/03/12 13:26:17;;;;;;;7.95;6.25;;;;;;;25.02;8.30;101522.30;2228938;87;25904;-88
2022/03/12 13:29:46;;;;;;;7.65;5.65;;;;;;;24.46;8.56;101520.55;2196357;88;25864;-82
2022/03/12 13:33:23;;;;;;;;;;;;;;;;;;;;;
2022/03/12 13:36:49;;;;;;;6.67;6.08;;;;;;;24.06;8.85;101514.03;2250708;86;26016;-78
2022/03/12 13:40:24;;;;;;;7.83;5.12;;;;;;;23.98;8.87;101507.48;2280714;85;25710;-77
2022/03/12 13:44:03;;;;;;;9.50;5.00;;;;;;;23.86;8.70;101507.64;2280253;85;25296;-87
2022/03/12 13:47:43;;;;;;;;;;;;;;;;;;;;;
2022/03/12 13:51:28;;;;;;;8.83;5.80;;;;;;;23.73;9.03;101501.62;2239269;86;25865;-85
2022/03/12 13:55:06;;;;;;;8.85;5.90;;;;;;;23.66;9.00;101495.88;2237784;88;25762;-87
2022/03/12 13:59:04;;;;;;;;;;;;;;;;;;;;;
2022/03/12 14:02:20;;;;;;;10.50;5.70;;;;;;;23.78;8.86;101500.63;2196785;89;25916;-77
2022/03/12 14:05:44;;;;;;;5.72;5.28;;;;;;;23.20;9.12;101497.77;2181230;87;26497;-85
2022/03/12 14:09:23;;;;;;;5.87;5.28;;;;;;;23.16;9.24;101489.40;2199633;88;25937;-75
2022/03/12 14:13:09;;;;;;;7.85;5.60;;;;;;;22.96;9.22;101486.95;2224275;88;25758;-77
2022/03/12 14:20:27;;;;;;;8.48;5.47;;;;;;;22.96;9.12;101475.86;2065430;93;26109;-76
2022/03/12 14:24:51;;;;;;;7.80;5.78;;;;;;;22.55;9.20;101475.77;1999246;97;25920;-79
2022/03/12 14:28:24;;;;;;;6.03;5.40;;;;;;;21.94;9.20;101465.55;2033344;94;25822;-75
2022/03/12 14:31:56;;;;;;;5.65;5.12;;;;;;;21.28;9.34;101457.84;2056528;94;25738;-85
2022/03/12 14:36:05;;;;;;;7.42;5.12;;;;;;;20.58;9.40;101458.86;2018592;94;25951;-81
2022/03/12 14:39:28;;;;;;;8.28;6.15;;;;;;;19.72;9.73;101456.08;2038971;94;25727;-76
2022/03/12 14:43:02;;;;;;;6.10;5.60;;;;;;;19.87;10.01;101445.08;2021574;95;25856;-85
2022/03/12 14:46:43;;;;;;;;;;;;;;;;;;;;;
2022/03/12 14:50:11;;;;;;;7.35;6.62;;;;;;;19.07;10.41;101446.95;2092378;93;25868;-77
2022/03/12 14:53:47;;;;;;;11.70;6.20;;;;;;;18.41;10.91;101441.16;2125120;92;26572;-76
2022/03/12 14:57:28;;;;;;;12.10;6.28;;;;;;;17.81;11.08;101430.47;2175602;89;25769;-81
2022/03/12 15:00:54;;;;;;;14.45;6.78;;;;;;;17.29;11.24;101425.88;2132825;89;25910;-75
2022/03/12 15:04:20;;;;;;;7.00;6.30;;;;;;;17.04;11.53;101426.41;2167739;91;26069;-77
2022/03/12 15:07:49;;;;;;;13.38;6.97;;;;;;;16.79;11.73;101426.06;2167117;91;25945;-79
2022/03/12 15:11:15;;;;;;;12.98;6.60;;;;;;;16.33;11.92;101425.30;2168348;91;25931;-78
2022/03/12 15:14:46;;;;;;;11.78;6.67;;;;;;;16.05;12.27;101420.00;2168271;91;25320;-79
2022/03/12 15:18:20;;;;;;;8.78;6.55;;;;;;;15.88;12.45;101412.23;2172123;91;26510;-77
2022/03/12 15:22:07;;;;;;;9.55;6.85;;;;;;;15.59;12.41;101406.87;2178956;89;25949;-81
2022/03/12 15:25:40;;;;;;;14.40;7.05;;;;;;;15.26;12.60;101403.13;2171995;90;25387;-82
2022/03/12 15:29:08;;;;;;;15.43;6.60;;;;;;;14.91;12.88;101397.10;2197710;88;25836;-76
2022/03/12 15:32:37;;;;;;;13.98;6.90;;;;;;;15.09;15.26;101401.89;2282172;85;25702;-77
2022/03/12 15:36:22;;;;;;;15.60;6.45;;;;;;;15.83;15.86;101405.59;2240511;87;25759;-76
2022/03/12 15:39:46;;;;;;;9.77;6.47;;;;;;;16.12;16.21;101406.53;2170508;90;26054;-76
2022/03/12 15:43:13;;;;;;;10.70;6.12;;;;;;;16.25;17.01;101409.83;2167272;89;31367;-77
2022/03/12 15:46:38;;;;;;;10.70;6.35;;;;;;;16.34;17.50;101409.11;2142680;91;26112;-75
2022/03/12 15:50:15;;;;;;;12.23;5.25;;;;;;;16.39;18.20;101403.03;2214231;88;26058;-75
2022/03/12 15:53:41;;;;;;;15.63;6.30;;;;;;;16.40;18.83;101404.83;2220994;89;26377;-77
2022/03/12 15:57:10;;;;;;;14.07;6.22;;;;;;;16.42;19.48;101399.57;2220672;89;26025;-75
2022/03/12 16:00:41;;;;;;;9.50;5.92;;;;;;;16.40;20.08;101398.25;2220998;89;25704;-75
2022/03/12 16:04:03;;;;;;;11.80;6.83;;;;;;;16.36;20.39;101393.77;2221299;89;25736;-77
2022/03/12 16:07:44;;;;;;;8.68;5.90;;;;;;;16.34;20.77;101392.00;2220844;88;25840;-77
2022/03/12 16:11:10;;;;;;;13.40;5.97;;;;;;;16.29;21.04;101386.20;2221002;89;25889;-78
2022/03/12 16:14:41;;;;;;;14.30;7.55;;;;;;;16.27;21.44;101389.70;2221581;87;25584;-77
2022/03/12 16:18:01;;;;;;;11.10;5.90;;;;;;;16.21;21.60;101387.84;2253409;86;25780;-74
2022/03/12 16:21:30;;;;;;;10.95;6.53;;;;;;;16.16;21.63;101388.17;2256404;87;25888;-75
2022/03/12 16:24:56;;;;;;;7.12;5.85;;;;;;;16.10;21.70;101384.16;2251732;86;26365;-74
2022/03/12 16:28:41;;;;;;;6.70;5.22;;;;;;;16.05;21.66;101380.55;2253748;87;25743;-77
2022/03/12 16:32:07;;;;;;;8.40;5.25;;;;;;;15.99;21.81;101383.94;2278676;85;26074;-78
2022/03/12 16:35:49;;;;;;;6.37;5.20;;;;;;;15.97;21.80;101380.86;2304918;84;26154;-81
2022/03/12 16:39:28;;;;;;;8.93;5.83;;;;;;;15.94;21.74;101385.63;2305313;84;25738;-75
2022/03/12 16:43:12;;;;;;;;;;;;;;;;;;;;;
2022/03/12 16:46:45;;;;;;;11.12;5.10;;;;;;;15.87;21.39;101386.81;2317264;84;25878;-77
2022/03/12 16:50:20;;;;;;;10.25;5.37;;;;;;;15.80;21.18;101377.92;2337129;84;25791;-76
2022/03/12 16:53:53;;;;;;;7.05;4.97;;;;;;;15.74;21.03;101374.74;2353493;82;25660;-76
2022/03/12 16:57:39;;;;;;;;;;;;;;;;;;;;;
2022/03/12 17:01:07;;;;;;;8.15;5.58;;;;;;;15.63;20.71;101367.06;2338836;82;26081;-76
2022/03/12 17:04:30;;;;;;;7.17;5.83;;;;;;;15.56;20.61;101370.44;2324774;82;26052;-77
2022/03/12 17:08:13;;;;;;;6.20;5.50;;;;;;;15.31;20.25;101345.41;2334051;84;25732;-78
2022/03/12 17:11:50;;;;;;;;;;;;;;;15.31;20.25;101345.41;2307513;85;25776;-77
2022/03/12 17:15:20;;;;;;;7.65;5.87;;;;;;;15.32;20.09;101370.42;2317210;85;25724;-79
2022/03/12 17:22:24;;;;;;;11.30;6.53;;;;;;;14.64;19.37;101340.94;2187405;88;26056;-79
2022/03/12 17:25:46;;;;;;;9.75;7.28;;;;;;;14.64;19.37;101340.94;2185962;88;25815;-77
2022/03/12 17:29:24;;;;;;;;;;;;;;;;;;;;;
2022/03/12 17:32:49;;;;;;;8.18;6.87;;;;;;;14.53;19.02;101361.69;2187429;88;25804;-77
2022/03/12 17:40:21;;;;;;;15.50;7.65;;;;;;;14.31;18.85;101351.50;2120069;91;25806;-80
2022/03/12 17:43:56;;;;;;;;;;;;;;;;;;;;;
2022/03/12 17:47:14;;;;;;;15.78;8.83;;;;;;;14.08;18.74;101355.78;2113438;92;25724;-77
2022/03/12 17:50:42;;;;;;;19.92;8.33;;;;;;;14.00;18.73;101356.42;2097145;93;25761;-78
2022/03/12 17:54:03;;;;;;;12.05;8.63;;;;;;;13.91;18.68;101361.91;2213819;86;25877;-78
2022/03/12 18:01:01;;;;;;;18.50;8.40;;;;;;;13.90;18.62;101355.30;2156841;89;25333;-76
2022/03/12 18:04:24;;;;;;;20.15;10.00;;;;;;;13.95;18.69;101364.19;2118929;93;25797;-76